sensor_id;sensor_type;location;lat;lon;timestamp;P1;durP1;ratioP1;P2;durP2;ratioP2
3733;SDS011;1882;52.256;8.874;2023-05-29T00:02:06;14.80;;;5.20;;
3733;SDS011;1882;52.256;8.874;2023-05-29T00:04:33;13.70;;;4.47;;
3733;SDS011;1882;52.256;8.874;2023-05-29T00:07:01;17.90;;;4.83;;
3733;SDS011;1882;52.256;8.874;2023-05-29T00:09:28;19.83;;;5.43;;
3733;SDS011;1882;52.256;8.874;2023-05-29T00:11:56;13.07;;;5.00;;
3733;SDS011;1882;52.256;8.874;2023-05-29T00:14:22;21.57;;;4.33;;
3733;SDS011;1882;52.256;8.874;2023-05-29T00:16:50;16.87;;;4.97;;
3733;SDS011;1882;52.256;8.874;2023-05-29T00:19:17;21.23;;;5.03;;
3733;SDS011;1882;52.256;8.874;2023-05-29T00:21:45;24.63;;;5.60;;
3733;SDS011;1882;52.256;8.874;2023-05-29T00:24:14;10.20;;;4.40;;
3733;SDS011;1882;52.256;8.874;2023-05-29T00:26:42;18.73;;;4.70;;
3733;SDS011;1882;52.256;8.874;2023-05-29T00:29:09;16.43;;;4.70;;
3733;SDS011;1882;52.256;8.874;2023-05-29T00:31:35;16.30;;;4.93;;
3733;SDS011;1882;52.256;8.874;2023-05-29T00:34:04;18.17;;;4.40;;
3733;SDS011;1882;52.256;8.874;2023-05-29T00:36:31;17.63;;;4.90;;
3733;SDS011;1882;52.256;8.874;2023-05-29T00:38:58;17.03;;;4.37;;
3733;SDS011;1882;52.256;8.874;2023-05-29T00:41:24;13.90;;;4.57;;
3733;SDS011;1882;52.256;8.874;2023-05-29T00:43:51;19.23;;;4.97;;
3733;SDS011;1882;52.256;8.874;2023-05-29T00:46:18;18.33;;;4.50;;
3733;SDS011;1882;52.256;8.874;2023-05-29T00:48:47;10.43;;;4.20;;
3733;SDS011;1882;52.256;8.874;2023-05-29T00:51:13;11.87;;;4.30;;
3733;SDS011;1882;52.256;8.874;2023-05-29T00:53:41;20.93;;;4.77;;
3733;SDS011;1882;52.256;8.874;2023-05-29T00:56:09;14.77;;;4.50;;
3733;SDS011;1882;52.256;8.874;2023-05-29T00:58:36;18.43;;;5.13;;
3733;SDS011;1882;52.256;8.874;2023-05-29T01:01:03;22.27;;;5.23;;
3733;SDS011;1882;52.256;8.874;2023-05-29T01:03:30;11.57;;;4.33;;
3733;SDS011;1882;52.256;8.874;2023-05-29T01:05:58;16.03;;;4.40;;
3733;SDS011;1882;52.256;8.874;2023-05-29T01:08:25;15.07;;;4.63;;
3733;SDS011;1882;52.256;8.874;2023-05-29T01:10:54;18.93;;;4.67;;
3733;SDS011;1882;52.256;8.874;2023-05-29T01:13:23;15.80;;;4.13;;
3733;SDS011;1882;52.256;8.874;2023-05-29T01:15:54;14.47;;;4.50;;
3733;SDS011;1882;52.256;8.874;2023-05-29T01:29:34;19.40;;;4.87;;
3733;SDS011;1882;52.256;8.874;2023-05-29T01:32:01;20.00;;;5.40;;
3733;SDS011;1882;52.256;8.874;2023-05-29T01:34:28;12.70;;;4.43;;
3733;SDS011;1882;52.256;8.874;2023-05-29T01:36:55;21.30;;;4.97;;
3733;SDS011;1882;52.256;8.874;2023-05-29T01:39:22;21.40;;;4.77;;
3733;SDS011;1882;52.256;8.874;2023-05-29T01:41:53;13.10;;;4.37;;
3733;SDS011;1882;52.256;8.874;2023-05-29T01:44:21;15.43;;;4.70;;
3733;SDS011;1882;52.256;8.874;2023-05-29T01:46:48;14.17;;;4.70;;
3733;SDS011;1882;52.256;8.874;2023-05-29T01:49:15;17.63;;;4.80;;
3733;SDS011;1882;52.256;8.874;2023-05-29T01:51:43;17.83;;;4.73;;
3733;SDS011;1882;52.256;8.874;2023-05-29T01:54:10;14.30;;;4.90;;
3733;SDS011;1882;52.256;8.874;2023-05-29T01:56:37;15.20;;;4.67;;
3733;SDS011;1882;52.256;8.874;2023-05-29T01:59:05;23.23;;;4.83;;
3733;SDS011;1882;52.256;8.874;2023-05-29T02:01:32;22.10;;;4.67;;
3733;SDS011;1882;52.256;8.874;2023-05-29T02:03:59;20.20;;;4.80;;
3733;SDS011;1882;52.256;8.874;2023-05-29T02:06:26;27.00;;;5.60;;
3733;SDS011;1882;52.256;8.874;2023-05-29T02:08:53;20.57;;;4.60;;
3733;SDS011;1882;52.256;8.874;2023-05-29T02:11:20;15.70;;;4.37;;
3733;SDS011;1882;52.256;8.874;2023-05-29T02:13:48;15.67;;;4.50;;
3733;SDS011;1882;52.256;8.874;2023-05-29T02:16:15;19.80;;;4.70;;
3733;SDS011;1882;52.256;8.874;2023-05-29T02:18:44;16.97;;;5.30;;
3733;SDS011;1882;52.256;8.874;2023-05-29T02:21:11;20.80;;;5.40;;
3733;SDS011;1882;52.256;8.874;2023-05-29T02:23:38;19.30;;;4.60;;
3733;SDS011;1882;52.256;8.874;2023-05-29T02:26:04;20.23;;;4.50;;
3733;SDS011;1882;52.256;8.874;2023-05-29T02:28:31;18.30;;;4.83;;
3733;SDS011;1882;52.256;8.874;2023-05-29T02:30:58;19.20;;;5.03;;
3733;SDS011;1882;52.256;8.874;2023-05-29T02:33:25;20.00;;;4.27;;
3733;SDS011;1882;52.256;8.874;2023-05-29T02:35:53;23.50;;;4.50;;
3733;SDS011;1882;52.256;8.874;2023-05-29T02:38:33;17.13;;;4.73;;
3733;SDS011;1882;52.256;8.874;2023-05-29T02:41:07;19.47;;;4.50;;
3733;SDS011;1882;52.256;8.874;2023-05-29T02:43:34;17.00;;;4.40;;
3733;SDS011;1882;52.256;8.874;2023-05-29T02:46:00;21.47;;;5.20;;
3733;SDS011;1882;52.256;8.874;2023-05-29T02:48:28;14.27;;;4.10;;
3733;SDS011;1882;52.256;8.874;2023-05-29T02:50:55;20.97;;;4.27;;
3733;SDS011;1882;52.256;8.874;2023-05-29T02:53:22;16.10;;;4.60;;
3733;SDS011;1882;52.256;8.874;2023-05-29T02:55:49;16.13;;;3.90;;
3733;SDS011;1882;52.256;8.874;2023-05-29T02:58:17;18.47;;;4.23;;
3733;SDS011;1882;52.256;8.874;2023-05-29T03:00:47;24.77;;;4.30;;
3733;SDS011;1882;52.256;8.874;2023-05-29T03:03:14;12.00;;;4.30;;
3733;SDS011;1882;52.256;8.874;2023-05-29T03:05:41;14.90;;;4.40;;
3733;SDS011;1882;52.256;8.874;2023-05-29T03:08:08;24.90;;;5.03;;
3733;SDS011;1882;52.256;8.874;2023-05-29T03:10:34;18.23;;;4.30;;
3733;SDS011;1882;52.256;8.874;2023-05-29T03:13:01;23.33;;;4.50;;
3733;SDS011;1882;52.256;8.874;2023-05-29T03:15:29;21.67;;;4.43;;
3733;SDS011;1882;52.256;8.874;2023-05-29T03:17:55;21.57;;;4.43;;
3733;SDS011;1882;52.256;8.874;2023-05-29T03:20:26;18.43;;;4.27;;
3733;SDS011;1882;52.256;8.874;2023-05-29T03:22:56;17.63;;;4.47;;
3733;SDS011;1882;52.256;8.874;2023-05-29T03:25:23;21.53;;;4.50;;
3733;SDS011;1882;52.256;8.874;2023-05-29T03:27:49;17.50;;;4.37;;
3733;SDS011;1882;52.256;8.874;2023-05-29T03:30:18;28.73;;;4.13;;
3733;SDS011;1882;52.256;8.874;2023-05-29T03:32:48;14.23;;;4.20;;
3733;SDS011;1882;52.256;8.874;2023-05-29T03:35:15;15.80;;;4.13;;
3733;SDS011;1882;52.256;8.874;2023-05-29T03:37:42;20.50;;;4.17;;
3733;SDS011;1882;52.256;8.874;2023-05-29T03:40:09;18.50;;;4.33;;
3733;SDS011;1882;52.256;8.874;2023-05-29T03:42:37;18.70;;;4.40;;
3733;SDS011;1882;52.256;8.874;2023-05-29T03:45:04;13.63;;;4.73;;
3733;SDS011;1882;52.256;8.874;2023-05-29T03:47:33;19.27;;;4.03;;
3733;SDS011;1882;52.256;8.874;2023-05-29T03:50:00;13.83;;;4.17;;
3733;SDS011;1882;52.256;8.874;2023-05-29T03:52:30;20.67;;;4.20;;
3733;SDS011;1882;52.256;8.874;2023-05-29T03:54:58;17.57;;;4.23;;
3733;SDS011;1882;52.256;8.874;2023-05-29T03:57:25;15.77;;;4.43;;
3733;SDS011;1882;52.256;8.874;2023-05-29T03:59:53;10.93;;;3.40;;
3733;SDS011;1882;52.256;8.874;2023-05-29T04:02:21;22.23;;;4.53;;
3733;SDS011;1882;52.256;8.874;2023-05-29T04:04:48;20.03;;;4.73;;
3733;SDS011;1882;52.256;8.874;2023-05-29T04:07:15;18.40;;;3.90;;
3733;SDS011;1882;52.256;8.874;2023-05-29T04:09:44;14.80;;;4.03;;
3733;SDS011;1882;52.256;8.874;2023-05-29T04:12:10;26.50;;;3.67;;
3733;SDS011;1882;52.256;8.874;2023-05-29T04:14:37;14.60;;;3.53;;
3733;SDS011;1882;52.256;8.874;2023-05-29T04:17:04;12.13;;;3.70;;
3733;SDS011;1882;52.256;8.874;2023-05-29T04:19:31;10.30;;;3.63;;
3733;SDS011;1882;52.256;8.874;2023-05-29T04:21:59;18.63;;;3.23;;
3733;SDS011;1882;52.256;8.874;2023-05-29T04:24:26;11.97;;;3.30;;
3733;SDS011;1882;52.256;8.874;2023-05-29T04:26:52;14.50;;;3.23;;
3733;SDS011;1882;52.256;8.874;2023-05-29T04:29:19;15.30;;;3.90;;
3733;SDS011;1882;52.256;8.874;2023-05-29T04:31:46;10.43;;;3.33;;
3733;SDS011;1882;52.256;8.874;2023-05-29T04:34:14;18.20;;;4.03;;
3733;SDS011;1882;52.256;8.874;2023-05-29T04:36:44;15.17;;;3.33;;
3733;SDS011;1882;52.256;8.874;2023-05-29T04:39:12;13.30;;;3.47;;
3733;SDS011;1882;52.256;8.874;2023-05-29T04:41:40;18.17;;;3.10;;
3733;SDS011;1882;52.256;8.874;2023-05-29T04:44:10;15.27;;;3.70;;
3733;SDS011;1882;52.256;8.874;2023-05-29T04:46:43;13.67;;;3.57;;
3733;SDS011;1882;52.256;8.874;2023-05-29T04:49:11;12.17;;;3.40;;
3733;SDS011;1882;52.256;8.874;2023-05-29T04:51:39;14.80;;;3.80;;
3733;SDS011;1882;52.256;8.874;2023-05-29T04:54:10;9.60;;;3.47;;
3733;SDS011;1882;52.256;8.874;2023-05-29T04:56:38;15.40;;;3.27;;
3733;SDS011;1882;52.256;8.874;2023-05-29T04:59:12;11.77;;;3.20;;
3733;SDS011;1882;52.256;8.874;2023-05-29T05:01:39;9.43;;;3.33;;
3733;SDS011;1882;52.256;8.874;2023-05-29T05:04:13;13.27;;;3.33;;
3733;SDS011;1882;52.256;8.874;2023-05-29T05:06:40;14.77;;;3.80;;
3733;SDS011;1882;52.256;8.874;2023-05-29T05:09:06;12.07;;;3.20;;
3733;SDS011;1882;52.256;8.874;2023-05-29T05:11:33;14.77;;;3.53;;
3733;SDS011;1882;52.256;8.874;2023-05-29T05:14:00;14.93;;;3.60;;
3733;SDS011;1882;52.256;8.874;2023-05-29T05:16:28;16.20;;;3.67;;
3733;SDS011;1882;52.256;8.874;2023-05-29T05:18:55;11.80;;;3.00;;
3733;SDS011;1882;52.256;8.874;2023-05-29T05:21:22;11.63;;;3.10;;
3733;SDS011;1882;52.256;8.874;2023-05-29T05:23:49;10.60;;;3.30;;
3733;SDS011;1882;52.256;8.874;2023-05-29T05:26:26;10.43;;;3.30;;
3733;SDS011;1882;52.256;8.874;2023-05-29T05:28:54;12.87;;;3.20;;
3733;SDS011;1882;52.256;8.874;2023-05-29T05:31:23;12.87;;;3.00;;
3733;SDS011;1882;52.256;8.874;2023-05-29T05:33:57;9.80;;;3.10;;
3733;SDS011;1882;52.256;8.874;2023-05-29T05:36:29;12.80;;;3.27;;
3733;SDS011;1882;52.256;8.874;2023-05-29T05:39:04;13.60;;;3.47;;
3733;SDS011;1882;52.256;8.874;2023-05-29T05:41:31;10.80;;;3.37;;
3733;SDS011;1882;52.256;8.874;2023-05-29T05:43:59;10.80;;;3.10;;
3733;SDS011;1882;52.256;8.874;2023-05-29T05:46:52;11.10;;;3.50;;
3733;SDS011;1882;52.256;8.874;2023-05-29T05:49:24;11.93;;;3.50;;
3733;SDS011;1882;52.256;8.874;2023-05-29T05:51:53;9.00;;;3.50;;
3733;SDS011;1882;52.256;8.874;2023-05-29T05:54:21;9.77;;;2.90;;
3733;SDS011;1882;52.256;8.874;2023-05-29T05:56:48;11.43;;;3.30;;
3733;SDS011;1882;52.256;8.874;2023-05-29T05:59:17;10.47;;;2.90;;
3733;SDS011;1882;52.256;8.874;2023-05-29T06:01:44;11.33;;;3.20;;
3733;SDS011;1882;52.256;8.874;2023-05-29T06:04:15;11.30;;;3.20;;
3733;SDS011;1882;52.256;8.874;2023-05-29T06:06:42;11.23;;;3.10;;
3733;SDS011;1882;52.256;8.874;2023-05-29T06:09:09;13.47;;;3.63;;
3733;SDS011;1882;52.256;8.874;2023-05-29T06:11:37;11.13;;;3.10;;
3733;SDS011;1882;52.256;8.874;2023-05-29T06:14:04;10.90;;;3.27;;
3733;SDS011;1882;52.256;8.874;2023-05-29T06:16:31;10.00;;;3.63;;
3733;SDS011;1882;52.256;8.874;2023-05-29T06:18:58;14.87;;;3.50;;
3733;SDS011;1882;52.256;8.874;2023-05-29T06:21:26;8.33;;;3.07;;
3733;SDS011;1882;52.256;8.874;2023-05-29T06:23:54;10.43;;;3.13;;
3733;SDS011;1882;52.256;8.874;2023-05-29T06:26:22;10.93;;;3.17;;
3733;SDS011;1882;52.256;8.874;2023-05-29T06:28:50;11.80;;;3.00;;
3733;SDS011;1882;52.256;8.874;2023-05-29T06:31:25;10.03;;;2.90;;
3733;SDS011;1882;52.256;8.874;2023-05-29T06:33:52;11.13;;;2.87;;
3733;SDS011;1882;52.256;8.874;2023-05-29T06:36:18;21.03;;;3.60;;
3733;SDS011;1882;52.256;8.874;2023-05-29T06:38:46;9.90;;;2.87;;
3733;SDS011;1882;52.256;8.874;2023-05-29T06:41:16;10.57;;;3.13;;
3733;SDS011;1882;52.256;8.874;2023-05-29T06:43:45;10.93;;;3.47;;
3733;SDS011;1882;52.256;8.874;2023-05-29T06:46:15;8.07;;;2.80;;
3733;SDS011;1882;52.256;8.874;2023-05-29T06:48:43;13.03;;;3.30;;
3733;SDS011;1882;52.256;8.874;2023-05-29T06:51:13;10.43;;;3.37;;
3733;SDS011;1882;52.256;8.874;2023-05-29T06:53:39;16.37;;;3.73;;
3733;SDS011;1882;52.256;8.874;2023-05-29T06:56:09;8.87;;;3.10;;
3733;SDS011;1882;52.256;8.874;2023-05-29T06:58:36;10.00;;;2.87;;
3733;SDS011;1882;52.256;8.874;2023-05-29T07:01:03;11.20;;;2.87;;
3733;SDS011;1882;52.256;8.874;2023-05-29T07:03:35;13.37;;;2.77;;
3733;SDS011;1882;52.256;8.874;2023-05-29T07:06:04;10.33;;;3.40;;
3733;SDS011;1882;52.256;8.874;2023-05-29T07:08:31;15.00;;;3.67;;
3733;SDS011;1882;52.256;8.874;2023-05-29T07:10:58;15.20;;;3.13;;
3733;SDS011;1882;52.256;8.874;2023-05-29T07:13:25;13.43;;;3.30;;
3733;SDS011;1882;52.256;8.874;2023-05-29T07:15:53;18.10;;;3.60;;
3733;SDS011;1882;52.256;8.874;2023-05-29T07:18:28;11.43;;;3.13;;
3733;SDS011;1882;52.256;8.874;2023-05-29T07:20:59;9.53;;;2.90;;
3733;SDS011;1882;52.256;8.874;2023-05-29T07:23:28;7.33;;;2.87;;
3733;SDS011;1882;52.256;8.874;2023-05-29T07:25:55;13.50;;;3.60;;
3733;SDS011;1882;52.256;8.874;2023-05-29T07:28:24;14.20;;;3.80;;
3733;SDS011;1882;52.256;8.874;2023-05-29T07:30:51;14.70;;;2.87;;
3733;SDS011;1882;52.256;8.874;2023-05-29T07:33:18;16.57;;;3.37;;
3733;SDS011;1882;52.256;8.874;2023-05-29T07:35:45;8.83;;;2.90;;
3733;SDS011;1882;52.256;8.874;2023-05-29T07:38:12;8.70;;;2.90;;
3733;SDS011;1882;52.256;8.874;2023-05-29T07:40:42;12.63;;;3.50;;
3733;SDS011;1882;52.256;8.874;2023-05-29T07:43:23;11.17;;;3.23;;
3733;SDS011;1882;52.256;8.874;2023-05-29T07:45:55;18.03;;;3.40;;
3733;SDS011;1882;52.256;8.874;2023-05-29T07:48:23;17.13;;;3.27;;
3733;SDS011;1882;52.256;8.874;2023-05-29T07:50:50;15.83;;;3.03;;
3733;SDS011;1882;52.256;8.874;2023-05-29T07:53:22;10.10;;;2.83;;
3733;SDS011;1882;52.256;8.874;2023-05-29T07:55:49;12.43;;;2.90;;
3733;SDS011;1882;52.256;8.874;2023-05-29T07:58:17;9.70;;;2.83;;
3733;SDS011;1882;52.256;8.874;2023-05-29T08:00:44;17.70;;;3.30;;
3733;SDS011;1882;52.256;8.874;2023-05-29T08:03:13;14.50;;;3.27;;
3733;SDS011;1882;52.256;8.874;2023-05-29T08:05:43;12.10;;;2.57;;
3733;SDS011;1882;52.256;8.874;2023-05-29T08:08:11;10.97;;;2.70;;
3733;SDS011;1882;52.256;8.874;2023-05-29T08:10:39;17.10;;;3.43;;
3733;SDS011;1882;52.256;8.874;2023-05-29T08:13:12;14.60;;;3.00;;
3733;SDS011;1882;52.256;8.874;2023-05-29T08:15:41;9.03;;;2.80;;
3733;SDS011;1882;52.256;8.874;2023-05-29T08:18:07;15.93;;;3.47;;
3733;SDS011;1882;52.256;8.874;2023-05-29T08:20:34;10.23;;;3.47;;
3733;SDS011;1882;52.256;8.874;2023-05-29T08:23:01;12.10;;;3.30;;
3733;SDS011;1882;52.256;8.874;2023-05-29T08:25:30;13.90;;;3.47;;
3733;SDS011;1882;52.256;8.874;2023-05-29T08:27:57;9.00;;;2.97;;
3733;SDS011;1882;52.256;8.874;2023-05-29T08:30:24;10.70;;;2.87;;
3733;SDS011;1882;52.256;8.874;2023-05-29T08:32:51;15.80;;;3.40;;
3733;SDS011;1882;52.256;8.874;2023-05-29T08:35:20;13.43;;;3.50;;
3733;SDS011;1882;52.256;8.874;2023-05-29T08:37:47;16.10;;;3.17;;
3733;SDS011;1882;52.256;8.874;2023-05-29T08:40:17;12.23;;;3.20;;
3733;SDS011;1882;52.256;8.874;2023-05-29T08:42:47;13.80;;;3.00;;
3733;SDS011;1882;52.256;8.874;2023-05-29T08:45:19;11.00;;;2.83;;
3733;SDS011;1882;52.256;8.874;2023-05-29T08:47:49;8.30;;;3.13;;
3733;SDS011;1882;52.256;8.874;2023-05-29T08:50:28;11.87;;;2.90;;
3733;SDS011;1882;52.256;8.874;2023-05-29T08:52:55;14.87;;;3.40;;
3733;SDS011;1882;52.256;8.874;2023-05-29T08:55:22;16.07;;;3.60;;
3733;SDS011;1882;52.256;8.874;2023-05-29T08:57:49;18.80;;;3.77;;
3733;SDS011;1882;52.256;8.874;2023-05-29T09:00:22;10.63;;;2.77;;
3733;SDS011;1882;52.256;8.874;2023-05-29T09:02:54;10.30;;;2.90;;
3733;SDS011;1882;52.256;8.874;2023-05-29T09:05:21;12.10;;;3.03;;
3733;SDS011;1882;52.256;8.874;2023-05-29T09:07:53;12.67;;;3.80;;
3733;SDS011;1882;52.256;8.874;2023-05-29T09:10:20;12.53;;;3.70;;
3733;SDS011;1882;52.256;8.874;2023-05-29T09:12:50;12.80;;;3.73;;
3733;SDS011;1882;52.256;8.874;2023-05-29T09:15:23;9.10;;;3.40;;
3733;SDS011;1882;52.256;8.874;2023-05-29T09:20:18;14.70;;;2.70;;
3733;SDS011;1882;52.256;8.874;2023-05-29T09:22:56;12.23;;;3.00;;
3733;SDS011;1882;52.256;8.874;2023-05-29T09:25:25;13.43;;;3.27;;
3733;SDS011;1882;52.256;8.874;2023-05-29T09:32:59;11.60;;;2.97;;
3733;SDS011;1882;52.256;8.874;2023-05-29T09:35:33;17.07;;;4.03;;
3733;SDS011;1882;52.256;8.874;2023-05-29T09:38:03;10.53;;;3.23;;
3733;SDS011;1882;52.256;8.874;2023-05-29T09:40:37;9.00;;;2.73;;
3733;SDS011;1882;52.256;8.874;2023-05-29T09:45:44;8.33;;;2.90;;
3733;SDS011;1882;52.256;8.874;2023-05-29T09:48:13;8.13;;;2.73;;
3733;SDS011;1882;52.256;8.874;2023-05-29T09:50:49;11.50;;;3.00;;
3733;SDS011;1882;52.256;8.874;2023-05-29T09:53:22;10.40;;;3.00;;
3733;SDS011;1882;52.256;8.874;2023-05-29T09:55:57;13.10;;;3.47;;
3733;SDS011;1882;52.256;8.874;2023-05-29T09:58:28;10.63;;;3.23;;
3733;SDS011;1882;52.256;8.874;2023-05-29T10:00:55;11.70;;;3.30;;
3733;SDS011;1882;52.256;8.874;2023-05-29T10:03:24;8.40;;;3.30;;
3733;SDS011;1882;52.256;8.874;2023-05-29T10:05:57;8.50;;;3.37;;
3733;SDS011;1882;52.256;8.874;2023-05-29T10:08:25;13.23;;;3.40;;
3733;SDS011;1882;52.256;8.874;2023-05-29T10:10:54;11.93;;;3.47;;
3733;SDS011;1882;52.256;8.874;2023-05-29T10:13:23;11.87;;;3.00;;
3733;SDS011;1882;52.256;8.874;2023-05-29T10:15:52;9.47;;;3.00;;
3733;SDS011;1882;52.256;8.874;2023-05-29T10:18:26;9.37;;;2.80;;
3733;SDS011;1882;52.256;8.874;2023-05-29T10:20:55;12.40;;;3.20;;
3733;SDS011;1882;52.256;8.874;2023-05-29T10:23:24;17.53;;;3.30;;
3733;SDS011;1882;52.256;8.874;2023-05-29T10:25:52;9.67;;;3.23;;
3733;SDS011;1882;52.256;8.874;2023-05-29T10:28:20;12.80;;;3.30;;
3733;SDS011;1882;52.256;8.874;2023-05-29T10:31:00;9.97;;;2.90;;
3733;SDS011;1882;52.256;8.874;2023-05-29T10:33:40;10.07;;;3.10;;
3733;SDS011;1882;52.256;8.874;2023-05-29T10:36:30;13.17;;;3.40;;
3733;SDS011;1882;52.256;8.874;2023-05-29T10:39:02;9.80;;;3.17;;
3733;SDS011;1882;52.256;8.874;2023-05-29T10:41:29;10.77;;;3.50;;
3733;SDS011;1882;52.256;8.874;2023-05-29T10:43:58;10.80;;;2.90;;
3733;SDS011;1882;52.256;8.874;2023-05-29T10:49:20;11.77;;;3.57;;
3733;SDS011;1882;52.256;8.874;2023-05-29T10:51:47;10.67;;;2.77;;
3733;SDS011;1882;52.256;8.874;2023-05-29T10:54:14;9.77;;;2.83;;
3733;SDS011;1882;52.256;8.874;2023-05-29T10:56:44;8.10;;;2.90;;
3733;SDS011;1882;52.256;8.874;2023-05-29T10:59:11;16.77;;;3.43;;
3733;SDS011;1882;52.256;8.874;2023-05-29T11:01:38;12.20;;;2.93;;
3733;SDS011;1882;52.256;8.874;2023-05-29T11:06:45;12.47;;;2.90;;
3733;SDS011;1882;52.256;8.874;2023-05-29T11:09:34;6.83;;;3.20;;
3733;SDS011;1882;52.256;8.874;2023-05-29T11:12:16;8.97;;;3.00;;
3733;SDS011;1882;52.256;8.874;2023-05-29T11:15:03;8.00;;;3.03;;
3733;SDS011;1882;52.256;8.874;2023-05-29T11:20:10;10.27;;;3.30;;
3733;SDS011;1882;52.256;8.874;2023-05-29T11:25:25;13.40;;;3.10;;
3733;SDS011;1882;52.256;8.874;2023-05-29T11:27:55;13.13;;;3.50;;
3733;SDS011;1882;52.256;8.874;2023-05-29T11:30:22;11.83;;;3.63;;
3733;SDS011;1882;52.256;8.874;2023-05-29T11:32:52;8.57;;;3.13;;
3733;SDS011;1882;52.256;8.874;2023-05-29T11:35:20;11.20;;;2.97;;
3733;SDS011;1882;52.256;8.874;2023-05-29T11:37:48;11.50;;;2.90;;
3733;SDS011;1882;52.256;8.874;2023-05-29T11:40:20;6.70;;;2.80;;
3733;SDS011;1882;52.256;8.874;2023-05-29T11:42:46;14.10;;;3.60;;
3733;SDS011;1882;52.256;8.874;2023-05-29T11:45:21;7.37;;;3.37;;
3733;SDS011;1882;52.256;8.874;2023-05-29T11:47:52;13.27;;;3.33;;
3733;SDS011;1882;52.256;8.874;2023-05-29T11:50:22;16.40;;;3.30;;
3733;SDS011;1882;52.256;8.874;2023-05-29T11:52:53;9.27;;;3.30;;
3733;SDS011;1882;52.256;8.874;2023-05-29T11:55:20;9.43;;;3.33;;
3733;SDS011;1882;52.256;8.874;2023-05-29T11:57:55;11.87;;;3.37;;
3733;SDS011;1882;52.256;8.874;2023-05-29T12:00:23;7.97;;;3.40;;
3733;SDS011;1882;52.256;8.874;2023-05-29T12:02:53;12.70;;;3.43;;
3733;SDS011;1882;52.256;8.874;2023-05-29T12:05:20;12.83;;;4.20;;
3733;SDS011;1882;52.256;8.874;2023-05-29T12:07:51;9.23;;;3.57;;
3733;SDS011;1882;52.256;8.874;2023-05-29T12:10:20;11.07;;;3.50;;
3733;SDS011;1882;52.256;8.874;2023-05-29T12:12:50;10.43;;;3.50;;
3733;SDS011;1882;52.256;8.874;2023-05-29T12:15:19;9.40;;;3.80;;
3733;SDS011;1882;52.256;8.874;2023-05-29T12:17:53;7.17;;;3.40;;
3733;SDS011;1882;52.256;8.874;2023-05-29T12:20:24;10.10;;;3.30;;
3733;SDS011;1882;52.256;8.874;2023-05-29T12:22:53;13.17;;;3.27;;
3733;SDS011;1882;52.256;8.874;2023-05-29T12:25:26;9.73;;;3.00;;
3733;SDS011;1882;52.256;8.874;2023-05-29T12:27:55;10.80;;;3.27;;
3733;SDS011;1882;52.256;8.874;2023-05-29T12:30:22;12.13;;;3.57;;
3733;SDS011;1882;52.256;8.874;2023-05-29T12:32:59;9.23;;;3.37;;
3733;SDS011;1882;52.256;8.874;2023-05-29T12:35:27;10.40;;;4.10;;
3733;SDS011;1882;52.256;8.874;2023-05-29T12:38:02;9.70;;;3.30;;
3733;SDS011;1882;52.256;8.874;2023-05-29T12:40:32;11.53;;;3.47;;
3733;SDS011;1882;52.256;8.874;2023-05-29T12:43:06;10.00;;;3.27;;
3733;SDS011;1882;52.256;8.874;2023-05-29T12:45:35;11.03;;;4.50;;
3733;SDS011;1882;52.256;8.874;2023-05-29T12:48:03;13.60;;;4.10;;
3733;SDS011;1882;52.256;8.874;2023-05-29T12:53:01;8.57;;;3.50;;
3733;SDS011;1882;52.256;8.874;2023-05-29T12:55:33;17.33;;;4.43;;
3733;SDS011;1882;52.256;8.874;2023-05-29T12:58:14;7.03;;;3.70;;
3733;SDS011;1882;52.256;8.874;2023-05-29T13:00:42;12.20;;;3.77;;
3733;SDS011;1882;52.256;8.874;2023-05-29T13:03:10;9.70;;;3.20;;
3733;SDS011;1882;52.256;8.874;2023-05-29T13:05:39;7.60;;;3.27;;
3733;SDS011;1882;52.256;8.874;2023-05-29T13:08:06;9.77;;;3.40;;
3733;SDS011;1882;52.256;8.874;2023-05-29T13:10:36;11.23;;;3.30;;
3733;SDS011;1882;52.256;8.874;2023-05-29T13:13:03;9.07;;;3.33;;
3733;SDS011;1882;52.256;8.874;2023-05-29T13:15:29;7.70;;;3.17;;
3733;SDS011;1882;52.256;8.874;2023-05-29T13:17:59;8.80;;;3.13;;
3733;SDS011;1882;52.256;8.874;2023-05-29T13:20:25;6.93;;;3.27;;
3733;SDS011;1882;52.256;8.874;2023-05-29T13:22:52;7.60;;;3.40;;
3733;SDS011;1882;52.256;8.874;2023-05-29T13:25:23;11.17;;;4.13;;
3733;SDS011;1882;52.256;8.874;2023-05-29T13:27:52;8.60;;;2.97;;
3733;SDS011;1882;52.256;8.874;2023-05-29T13:30:19;6.17;;;3.40;;
3733;SDS011;1882;52.256;8.874;2023-05-29T13:32:49;10.13;;;3.27;;
3733;SDS011;1882;52.256;8.874;2023-05-29T13:35:22;11.33;;;3.37;;
3733;SDS011;1882;52.256;8.874;2023-05-29T13:37:49;12.33;;;3.70;;
3733;SDS011;1882;52.256;8.874;2023-05-29T13:40:19;12.20;;;3.10;;
3733;SDS011;1882;52.256;8.874;2023-05-29T13:42:48;9.33;;;2.93;;
3733;SDS011;1882;52.256;8.874;2023-05-29T13:45:23;9.33;;;3.00;;
3733;SDS011;1882;52.256;8.874;2023-05-29T13:47:50;9.23;;;3.00;;
3733;SDS011;1882;52.256;8.874;2023-05-29T13:50:22;9.37;;;3.27;;
3733;SDS011;1882;52.256;8.874;2023-05-29T13:52:53;6.93;;;3.10;;
3733;SDS011;1882;52.256;8.874;2023-05-29T13:55:20;8.63;;;3.40;;
3733;SDS011;1882;52.256;8.874;2023-05-29T13:57:46;11.33;;;3.67;;
3733;SDS011;1882;52.256;8.874;2023-05-29T14:00:16;9.00;;;3.00;;
3733;SDS011;1882;52.256;8.874;2023-05-29T14:02:43;12.27;;;3.10;;
3733;SDS011;1882;52.256;8.874;2023-05-29T14:05:10;12.43;;;3.60;;
3733;SDS011;1882;52.256;8.874;2023-05-29T14:07:37;10.77;;;3.40;;
3733;SDS011;1882;52.256;8.874;2023-05-29T14:10:04;9.70;;;2.40;;
3733;SDS011;1882;52.256;8.874;2023-05-29T14:12:31;11.33;;;3.20;;
3733;SDS011;1882;52.256;8.874;2023-05-29T14:14:58;10.63;;;2.90;;
3733;SDS011;1882;52.256;8.874;2023-05-29T14:17:25;11.53;;;2.80;;
3733;SDS011;1882;52.256;8.874;2023-05-29T14:19:52;7.77;;;2.90;;
3733;SDS011;1882;52.256;8.874;2023-05-29T14:22:19;8.17;;;3.30;;
3733;SDS011;1882;52.256;8.874;2023-05-29T14:24:46;9.60;;;3.10;;
3733;SDS011;1882;52.256;8.874;2023-05-29T14:27:15;7.57;;;3.20;;
3733;SDS011;1882;52.256;8.874;2023-05-29T14:29:42;13.27;;;2.87;;
3733;SDS011;1882;52.256;8.874;2023-05-29T14:32:08;6.93;;;3.30;;
3733;SDS011;1882;52.256;8.874;2023-05-29T14:34:35;7.27;;;3.27;;
3733;SDS011;1882;52.256;8.874;2023-05-29T14:37:02;11.17;;;3.93;;
3733;SDS011;1882;52.256;8.874;2023-05-29T14:39:29;5.90;;;3.00;;
3733;SDS011;1882;52.256;8.874;2023-05-29T14:41:59;9.93;;;2.90;;
3733;SDS011;1882;52.256;8.874;2023-05-29T14:44:33;7.07;;;2.90;;
3733;SDS011;1882;52.256;8.874;2023-05-29T14:47:00;9.40;;;3.23;;
3733;SDS011;1882;52.256;8.874;2023-05-29T14:49:37;10.87;;;3.10;;
3733;SDS011;1882;52.256;8.874;2023-05-29T14:52:04;8.70;;;3.07;;
3733;SDS011;1882;52.256;8.874;2023-05-29T14:54:31;9.77;;;3.17;;
3733;SDS011;1882;52.256;8.874;2023-05-29T14:56:57;9.43;;;2.93;;
3733;SDS011;1882;52.256;8.874;2023-05-29T14:59:36;11.87;;;3.40;;
3733;SDS011;1882;52.256;8.874;2023-05-29T15:02:02;12.77;;;3.20;;
3733;SDS011;1882;52.256;8.874;2023-05-29T15:04:37;7.70;;;2.70;;
3733;SDS011;1882;52.256;8.874;2023-05-29T15:07:03;9.70;;;3.27;;
3733;SDS011;1882;52.256;8.874;2023-05-29T15:09:32;11.63;;;3.30;;
3733;SDS011;1882;52.256;8.874;2023-05-29T15:11:59;11.40;;;3.60;;
3733;SDS011;1882;52.256;8.874;2023-05-29T15:14:29;9.73;;;3.67;;
3733;SDS011;1882;52.256;8.874;2023-05-29T15:16:56;8.93;;;3.20;;
3733;SDS011;1882;52.256;8.874;2023-05-29T15:19:22;8.63;;;2.80;;
3733;SDS011;1882;52.256;8.874;2023-05-29T15:21:49;10.27;;;3.03;;
3733;SDS011;1882;52.256;8.874;2023-05-29T15:24:16;9.30;;;2.90;;
3733;SDS011;1882;52.256;8.874;2023-05-29T15:26:42;9.87;;;3.30;;
3733;SDS011;1882;52.256;8.874;2023-05-29T15:29:11;15.90;;;3.40;;
3733;SDS011;1882;52.256;8.874;2023-05-29T15:31:37;9.93;;;2.90;;
3733;SDS011;1882;52.256;8.874;2023-05-29T15:34:04;7.77;;;3.00;;
3733;SDS011;1882;52.256;8.874;2023-05-29T15:36:30;7.97;;;3.17;;
3733;SDS011;1882;52.256;8.874;2023-05-29T15:38:57;13.93;;;3.10;;
3733;SDS011;1882;52.256;8.874;2023-05-29T15:41:30;11.43;;;3.40;;
3733;SDS011;1882;52.256;8.874;2023-05-29T15:43:57;8.57;;;2.80;;
3733;SDS011;1882;52.256;8.874;2023-05-29T15:46:27;8.57;;;2.83;;
3733;SDS011;1882;52.256;8.874;2023-05-29T15:48:55;11.90;;;3.30;;
3733;SDS011;1882;52.256;8.874;2023-05-29T15:51:22;10.60;;;3.10;;